sensor_id;sensor_type;location;lat;lon;timestamp;P1;durP1;ratioP1;P2;durP2;ratioP2
36377;SDS011;22402;42.746;23.606;2023-06-26T00:02:19;24.30;;;15.73;;
36377;SDS011;22402;42.746;23.606;2023-06-26T00:04:45;20.70;;;15.07;;
36377;SDS011;22402;42.746;23.606;2023-06-26T00:07:10;22.97;;;14.07;;
36377;SDS011;22402;42.746;23.606;2023-06-26T00:09:36;20.23;;;14.23;;
36377;SDS011;22402;42.746;23.606;2023-06-26T00:12:01;20.60;;;15.13;;
36377;SDS011;22402;42.746;23.606;2023-06-26T00:14:27;21.70;;;15.80;;
36377;SDS011;22402;42.746;23.606;2023-06-26T00:16:53;19.73;;;15.43;;
36377;SDS011;22402;42.746;23.606;2023-06-26T00:19:19;27.30;;;16.40;;
36377;SDS011;22402;42.746;23.606;2023-06-26T00:21:44;24.33;;;16.10;;
36377;SDS011;22402;42.746;23.606;2023-06-26T00:24:13;20.87;;;16.23;;
36377;SDS011;22402;42.746;23.606;2023-06-26T00:26:39;22.90;;;15.90;;
36377;SDS011;22402;42.746;23.606;2023-06-26T00:29:05;19.87;;;15.50;;
36377;SDS011;22402;42.746;23.606;2023-06-26T00:31:30;23.90;;;16.70;;
36377;SDS011;22402;42.746;23.606;2023-06-26T00:33:56;29.27;;;17.50;;
36377;SDS011;22402;42.746;23.606;2023-06-26T00:36:21;28.30;;;17.63;;
36377;SDS011;22402;42.746;23.606;2023-06-26T00:38:51;27.17;;;18.60;;
36377;SDS011;22402;42.746;23.606;2023-06-26T00:41:17;31.30;;;19.40;;
36377;SDS011;22402;42.746;23.606;2023-06-26T00:43:42;30.43;;;20.03;;
36377;SDS011;22402;42.746;23.606;2023-06-26T00:46:09;32.63;;;19.50;;
36377;SDS011;22402;42.746;23.606;2023-06-26T00:48:39;31.17;;;18.50;;
36377;SDS011;22402;42.746;23.606;2023-06-26T00:51:06;27.90;;;19.70;;
36377;SDS011;22402;42.746;23.606;2023-06-26T00:53:32;30.63;;;19.27;;
36377;SDS011;22402;42.746;23.606;2023-06-26T00:55:58;25.13;;;19.57;;
36377;SDS011;22402;42.746;23.606;2023-06-26T00:58:24;31.87;;;21.77;;
36377;SDS011;22402;42.746;23.606;2023-06-26T01:00:50;27.17;;;18.30;;
36377;SDS011;22402;42.746;23.606;2023-06-26T01:03:16;31.63;;;20.47;;
36377;SDS011;22402;42.746;23.606;2023-06-26T01:05:42;26.70;;;18.83;;
36377;SDS011;22402;42.746;23.606;2023-06-26T01:08:11;32.90;;;20.37;;
36377;SDS011;22402;42.746;23.606;2023-06-26T01:10:37;29.30;;;18.77;;
36377;SDS011;22402;42.746;23.606;2023-06-26T01:13:03;27.83;;;19.13;;
36377;SDS011;22402;42.746;23.606;2023-06-26T01:15:32;26.27;;;18.57;;
36377;SDS011;22402;42.746;23.606;2023-06-26T01:18:00;24.20;;;18.30;;
36377;SDS011;22402;42.746;23.606;2023-06-26T01:20:29;28.23;;;18.63;;
36377;SDS011;22402;42.746;23.606;2023-06-26T01:28:38;25.60;;;17.47;;
36377;SDS011;22402;42.746;23.606;2023-06-26T01:31:06;31.03;;;17.03;;
36377;SDS011;22402;42.746;23.606;2023-06-26T01:33:32;23.07;;;17.40;;
36377;SDS011;22402;42.746;23.606;2023-06-26T01:35:58;22.00;;;16.47;;
36377;SDS011;22402;42.746;23.606;2023-06-26T01:38:23;18.87;;;15.67;;
36377;SDS011;22402;42.746;23.606;2023-06-26T01:40:49;19.77;;;15.03;;
36377;SDS011;22402;42.746;23.606;2023-06-26T01:43:20;18.47;;;15.60;;
36377;SDS011;22402;42.746;23.606;2023-06-26T01:46:04;19.40;;;16.20;;
36377;SDS011;22402;42.746;23.606;2023-06-26T01:48:38;21.30;;;16.13;;
36377;SDS011;22402;42.746;23.606;2023-06-26T01:51:10;20.07;;;16.20;;
36377;SDS011;22402;42.746;23.606;2023-06-26T01:53:41;22.30;;;15.97;;
36377;SDS011;22402;42.746;23.606;2023-06-26T01:56:13;24.33;;;16.00;;
36377;SDS011;22402;42.746;23.606;2023-06-26T01:58:43;21.60;;;17.30;;
36377;SDS011;22402;42.746;23.606;2023-06-26T02:01:10;24.73;;;15.87;;
36377;SDS011;22402;42.746;23.606;2023-06-26T02:03:37;20.20;;;16.57;;
36377;SDS011;22402;42.746;23.606;2023-06-26T02:06:02;23.10;;;17.67;;
36377;SDS011;22402;42.746;23.606;2023-06-26T02:08:28;23.00;;;17.00;;
36377;SDS011;22402;42.746;23.606;2023-06-26T02:10:53;18.00;;;15.00;;
36377;SDS011;22402;42.746;23.606;2023-06-26T02:13:19;19.00;;;14.30;;
36377;SDS011;22402;42.746;23.606;2023-06-26T02:15:44;21.13;;;16.07;;
36377;SDS011;22402;42.746;23.606;2023-06-26T02:18:09;17.40;;;15.17;;
36377;SDS011;22402;42.746;23.606;2023-06-26T02:20:35;19.87;;;14.97;;
36377;SDS011;22402;42.746;23.606;2023-06-26T02:23:01;24.20;;;16.40;;
36377;SDS011;22402;42.746;23.606;2023-06-26T02:25:26;21.07;;;16.80;;
36377;SDS011;22402;42.746;23.606;2023-06-26T02:27:52;18.00;;;15.40;;
36377;SDS011;22402;42.746;23.606;2023-06-26T02:30:17;20.10;;;16.43;;
36377;SDS011;22402;42.746;23.606;2023-06-26T02:32:43;25.83;;;18.73;;
36377;SDS011;22402;42.746;23.606;2023-06-26T02:35:08;25.53;;;19.43;;
36377;SDS011;22402;42.746;23.606;2023-06-26T02:37:34;30.30;;;21.03;;
36377;SDS011;22402;42.746;23.606;2023-06-26T02:39:59;37.00;;;22.33;;
36377;SDS011;22402;42.746;23.606;2023-06-26T02:42:24;37.80;;;21.90;;
36377;SDS011;22402;42.746;23.606;2023-06-26T02:44:50;30.67;;;21.23;;
36377;SDS011;22402;42.746;23.606;2023-06-26T02:47:16;29.83;;;22.50;;
36377;SDS011;22402;42.746;23.606;2023-06-26T02:52:17;34.93;;;23.00;;
36377;SDS011;22402;42.746;23.606;2023-06-26T02:54:44;37.93;;;23.97;;
36377;SDS011;22402;42.746;23.606;2023-06-26T02:57:09;36.50;;;24.77;;
36377;SDS011;22402;42.746;23.606;2023-06-26T02:59:34;40.70;;;25.13;;
36377;SDS011;22402;42.746;23.606;2023-06-26T03:02:03;35.30;;;24.10;;
36377;SDS011;22402;42.746;23.606;2023-06-26T03:04:29;36.37;;;23.93;;
36377;SDS011;22402;42.746;23.606;2023-06-26T03:06:54;33.60;;;24.23;;
36377;SDS011;22402;42.746;23.606;2023-06-26T03:09:20;37.17;;;25.17;;
36377;SDS011;22402;42.746;23.606;2023-06-26T03:11:45;36.40;;;24.30;;
36377;SDS011;22402;42.746;23.606;2023-06-26T03:14:11;36.27;;;23.50;;
36377;SDS011;22402;42.746;23.606;2023-06-26T03:16:36;33.73;;;23.60;;
36377;SDS011;22402;42.746;23.606;2023-06-26T03:19:02;37.33;;;24.50;;
36377;SDS011;22402;42.746;23.606;2023-06-26T03:21:27;38.20;;;26.90;;
36377;SDS011;22402;42.746;23.606;2023-06-26T03:23:53;42.33;;;28.20;;
36377;SDS011;22402;42.746;23.606;2023-06-26T03:26:18;42.90;;;25.57;;
36377;SDS011;22402;42.746;23.606;2023-06-26T03:28:43;39.70;;;27.63;;
36377;SDS011;22402;42.746;23.606;2023-06-26T03:31:09;45.97;;;30.37;;
36377;SDS011;22402;42.746;23.606;2023-06-26T03:33:35;44.60;;;28.57;;
36377;SDS011;22402;42.746;23.606;2023-06-26T03:36:03;42.27;;;30.00;;
36377;SDS011;22402;42.746;23.606;2023-06-26T03:38:29;45.20;;;28.80;;
36377;SDS011;22402;42.746;23.606;2023-06-26T03:40:54;48.53;;;30.10;;
36377;SDS011;22402;42.746;23.606;2023-06-26T03:43:20;42.30;;;28.37;;
36377;SDS011;22402;42.746;23.606;2023-06-26T03:45:46;40.00;;;26.43;;
36377;SDS011;22402;42.746;23.606;2023-06-26T03:48:11;41.43;;;27.97;;
36377;SDS011;22402;42.746;23.606;2023-06-26T03:50:40;43.07;;;29.50;;
36377;SDS011;22402;42.746;23.606;2023-06-26T03:53:05;44.53;;;28.63;;
36377;SDS011;22402;42.746;23.606;2023-06-26T03:55:31;41.33;;;26.47;;
36377;SDS011;22402;42.746;23.606;2023-06-26T03:57:56;37.87;;;24.40;;
36377;SDS011;22402;42.746;23.606;2023-06-26T04:00:22;37.90;;;26.80;;
36377;SDS011;22402;42.746;23.606;2023-06-26T04:02:47;37.57;;;26.37;;
36377;SDS011;22402;42.746;23.606;2023-06-26T04:05:13;32.90;;;23.20;;
36377;SDS011;22402;42.746;23.606;2023-06-26T04:07:39;35.70;;;23.83;;
36377;SDS011;22402;42.746;23.606;2023-06-26T04:10:05;31.40;;;22.90;;
36377;SDS011;22402;42.746;23.606;2023-06-26T04:12:31;29.87;;;21.33;;
36377;SDS011;22402;42.746;23.606;2023-06-26T04:14:57;31.00;;;21.87;;
36377;SDS011;22402;42.746;23.606;2023-06-26T04:17:22;30.60;;;21.83;;
36377;SDS011;22402;42.746;23.606;2023-06-26T04:19:47;34.10;;;21.83;;
36377;SDS011;22402;42.746;23.606;2023-06-26T04:22:13;29.70;;;22.53;;
36377;SDS011;22402;42.746;23.606;2023-06-26T04:24:40;31.50;;;21.80;;
36377;SDS011;22402;42.746;23.606;2023-06-26T04:27:05;36.40;;;22.53;;
36377;SDS011;22402;42.746;23.606;2023-06-26T04:29:31;33.07;;;22.87;;
36377;SDS011;22402;42.746;23.606;2023-06-26T04:31:56;27.73;;;20.90;;
36377;SDS011;22402;42.746;23.606;2023-06-26T04:34:26;27.87;;;20.90;;
36377;SDS011;22402;42.746;23.606;2023-06-26T04:36:52;27.50;;;22.30;;
36377;SDS011;22402;42.746;23.606;2023-06-26T04:39:17;26.40;;;18.80;;
36377;SDS011;22402;42.746;23.606;2023-06-26T04:41:44;23.33;;;19.00;;
36377;SDS011;22402;42.746;23.606;2023-06-26T04:44:10;24.53;;;18.73;;
36377;SDS011;22402;42.746;23.606;2023-06-26T04:46:36;31.30;;;20.50;;
36377;SDS011;22402;42.746;23.606;2023-06-26T04:49:03;33.33;;;20.90;;
36377;SDS011;22402;42.746;23.606;2023-06-26T04:51:29;29.90;;;21.00;;
36377;SDS011;22402;42.746;23.606;2023-06-26T04:53:54;27.67;;;20.47;;
36377;SDS011;22402;42.746;23.606;2023-06-26T04:56:19;23.20;;;19.27;;
36377;SDS011;22402;42.746;23.606;2023-06-26T04:58:45;28.57;;;19.43;;
36377;SDS011;22402;42.746;23.606;2023-06-26T05:01:11;28.00;;;19.60;;
36377;SDS011;22402;42.746;23.606;2023-06-26T05:03:38;24.37;;;17.60;;
36377;SDS011;22402;42.746;23.606;2023-06-26T05:06:04;28.83;;;19.70;;
36377;SDS011;22402;42.746;23.606;2023-06-26T05:08:29;27.50;;;19.10;;
36377;SDS011;22402;42.746;23.606;2023-06-26T05:10:55;30.57;;;19.37;;
36377;SDS011;22402;42.746;23.606;2023-06-26T05:13:26;25.27;;;17.63;;
36377;SDS011;22402;42.746;23.606;2023-06-26T05:15:52;24.03;;;18.27;;
36377;SDS011;22402;42.746;23.606;2023-06-26T05:18:18;26.53;;;18.50;;
36377;SDS011;22402;42.746;23.606;2023-06-26T05:20:44;27.93;;;17.97;;
36377;SDS011;22402;42.746;23.606;2023-06-26T05:23:12;25.43;;;19.87;;
36377;SDS011;22402;42.746;23.606;2023-06-26T05:25:38;24.67;;;18.60;;
36377;SDS011;22402;42.746;23.606;2023-06-26T05:28:05;26.07;;;18.80;;
36377;SDS011;22402;42.746;23.606;2023-06-26T05:30:31;23.50;;;17.67;;
36377;SDS011;22402;42.746;23.606;2023-06-26T05:32:59;27.37;;;18.50;;
36377;SDS011;22402;42.746;23.606;2023-06-26T05:35:27;21.20;;;17.03;;
36377;SDS011;22402;42.746;23.606;2023-06-26T05:37:54;21.83;;;17.23;;
36377;SDS011;22402;42.746;23.606;2023-06-26T05:40:20;23.77;;;18.93;;
36377;SDS011;22402;42.746;23.606;2023-06-26T05:42:46;21.67;;;17.07;;
36377;SDS011;22402;42.746;23.606;2023-06-26T05:45:12;20.83;;;17.73;;
36377;SDS011;22402;42.746;23.606;2023-06-26T05:47:37;28.77;;;17.40;;
36377;SDS011;22402;42.746;23.606;2023-06-26T05:50:03;26.23;;;17.57;;
36377;SDS011;22402;42.746;23.606;2023-06-26T05:52:30;20.70;;;17.17;;
36377;SDS011;22402;42.746;23.606;2023-06-26T05:54:56;21.87;;;16.27;;
36377;SDS011;22402;42.746;23.606;2023-06-26T05:57:25;19.57;;;17.33;;
36377;SDS011;22402;42.746;23.606;2023-06-26T05:59:52;19.93;;;17.13;;
36377;SDS011;22402;42.746;23.606;2023-06-26T06:02:18;23.43;;;17.47;;
36377;SDS011;22402;42.746;23.606;2023-06-26T06:04:43;22.53;;;17.53;;
36377;SDS011;22402;42.746;23.606;2023-06-26T06:07:08;22.10;;;18.67;;
36377;SDS011;22402;42.746;23.606;2023-06-26T06:09:34;27.23;;;19.47;;
36377;SDS011;22402;42.746;23.606;2023-06-26T06:11:59;24.27;;;18.13;;
36377;SDS011;22402;42.746;23.606;2023-06-26T06:14:26;21.50;;;17.67;;
36377;SDS011;22402;42.746;23.606;2023-06-26T06:16:52;19.10;;;16.83;;
36377;SDS011;22402;42.746;23.606;2023-06-26T06:19:18;18.63;;;15.60;;
36377;SDS011;22402;42.746;23.606;2023-06-26T06:21:43;19.20;;;15.80;;
36377;SDS011;22402;42.746;23.606;2023-06-26T06:24:09;18.30;;;14.90;;
36377;SDS011;22402;42.746;23.606;2023-06-26T06:26:34;15.63;;;13.93;;
36377;SDS011;22402;42.746;23.606;2023-06-26T06:29:00;17.23;;;15.40;;
36377;SDS011;22402;42.746;23.606;2023-06-26T06:31:26;15.13;;;13.37;;
36377;SDS011;22402;42.746;23.606;2023-06-26T06:33:55;18.07;;;14.20;;
36377;SDS011;22402;42.746;23.606;2023-06-26T06:36:20;14.83;;;12.67;;
36377;SDS011;22402;42.746;23.606;2023-06-26T06:38:46;14.40;;;12.90;;
36377;SDS011;22402;42.746;23.606;2023-06-26T06:41:11;15.53;;;13.43;;
36377;SDS011;22402;42.746;23.606;2023-06-26T06:43:37;13.33;;;11.97;;
36377;SDS011;22402;42.746;23.606;2023-06-26T06:46:03;14.17;;;12.67;;
36377;SDS011;22402;42.746;23.606;2023-06-26T06:48:29;14.50;;;12.27;;
36377;SDS011;22402;42.746;23.606;2023-06-26T06:50:54;15.27;;;11.70;;
36377;SDS011;22402;42.746;23.606;2023-06-26T06:53:20;12.03;;;10.87;;
36377;SDS011;22402;42.746;23.606;2023-06-26T06:55:46;12.83;;;11.47;;
36377;SDS011;22402;42.746;23.606;2023-06-26T06:58:12;13.50;;;11.43;;
36377;SDS011;22402;42.746;23.606;2023-06-26T07:00:37;19.23;;;10.10;;
36377;SDS011;22402;42.746;23.606;2023-06-26T07:03:03;11.40;;;9.40;;
36377;SDS011;22402;42.746;23.606;2023-06-26T07:05:29;12.93;;;9.27;;
36377;SDS011;22402;42.746;23.606;2023-06-26T07:07:54;13.97;;;9.37;;
36377;SDS011;22402;42.746;23.606;2023-06-26T07:10:20;11.00;;;9.37;;
36377;SDS011;22402;42.746;23.606;2023-06-26T07:12:46;10.00;;;9.00;;
36377;SDS011;22402;42.746;23.606;2023-06-26T07:15:12;7.93;;;7.20;;
36377;SDS011;22402;42.746;23.606;2023-06-26T07:17:37;13.87;;;7.77;;
36377;SDS011;22402;42.746;23.606;2023-06-26T07:20:04;8.53;;;7.17;;
36377;SDS011;22402;42.746;23.606;2023-06-26T07:22:35;7.30;;;6.53;;
36377;SDS011;22402;42.746;23.606;2023-06-26T07:25:01;6.07;;;5.47;;
36377;SDS011;22402;42.746;23.606;2023-06-26T07:27:27;6.00;;;5.47;;
36377;SDS011;22402;42.746;23.606;2023-06-26T07:29:53;6.07;;;5.47;;
36377;SDS011;22402;42.746;23.606;2023-06-26T07:32:19;7.73;;;5.30;;
36377;SDS011;22402;42.746;23.606;2023-06-26T07:34:44;6.70;;;5.70;;
36377;SDS011;22402;42.746;23.606;2023-06-26T07:37:10;6.37;;;5.43;;
36377;SDS011;22402;42.746;23.606;2023-06-26T07:39:35;5.60;;;4.83;;
36377;SDS011;22402;42.746;23.606;2023-06-26T07:42:00;6.60;;;5.80;;
36377;SDS011;22402;42.746;23.606;2023-06-26T07:44:26;6.83;;;5.00;;
36377;SDS011;22402;42.746;23.606;2023-06-26T07:46:52;5.50;;;4.43;;
36377;SDS011;22402;42.746;23.606;2023-06-26T07:49:17;6.20;;;3.90;;
36377;SDS011;22402;42.746;23.606;2023-06-26T07:51:43;4.57;;;4.13;;
36377;SDS011;22402;42.746;23.606;2023-06-26T07:54:08;4.20;;;3.40;;
36377;SDS011;22402;42.746;23.606;2023-06-26T07:56:35;4.00;;;3.20;;
36377;SDS011;22402;42.746;23.606;2023-06-26T07:59:32;3.70;;;3.40;;
36377;SDS011;22402;42.746;23.606;2023-06-26T08:01:58;3.80;;;3.20;;
36377;SDS011;22402;42.746;23.606;2023-06-26T08:04:28;4.50;;;3.50;;
36377;SDS011;22402;42.746;23.606;2023-06-26T08:06:58;3.83;;;2.50;;
36377;SDS011;22402;42.746;23.606;2023-06-26T08:09:26;3.43;;;2.57;;
36377;SDS011;22402;42.746;23.606;2023-06-26T08:11:52;2.63;;;2.43;;
36377;SDS011;22402;42.746;23.606;2023-06-26T08:14:19;3.40;;;2.40;;
36377;SDS011;22402;42.746;23.606;2023-06-26T08:16:46;2.93;;;2.30;;
36377;SDS011;22402;42.746;23.606;2023-06-26T08:19:12;7.90;;;2.37;;
36377;SDS011;22402;42.746;23.606;2023-06-26T08:21:42;4.63;;;2.77;;
36377;SDS011;22402;42.746;23.606;2023-06-26T08:24:08;2.20;;;2.00;;
36377;SDS011;22402;42.746;23.606;2023-06-26T08:26:34;4.20;;;2.47;;
36377;SDS011;22402;42.746;23.606;2023-06-26T08:29:00;2.80;;;2.27;;
36377;SDS011;22402;42.746;23.606;2023-06-26T08:31:32;5.43;;;2.37;;
36377;SDS011;22402;42.746;23.606;2023-06-26T08:34:01;2.90;;;2.50;;
36377;SDS011;22402;42.746;23.606;2023-06-26T08:36:27;2.70;;;2.47;;
36377;SDS011;22402;42.746;23.606;2023-06-26T08:38:53;2.40;;;2.13;;
36377;SDS011;22402;42.746;23.606;2023-06-26T08:41:18;2.40;;;2.20;;
36377;SDS011;22402;42.746;23.606;2023-06-26T08:43:44;2.80;;;2.60;;
36377;SDS011;22402;42.746;23.606;2023-06-26T08:46:09;2.63;;;2.43;;
36377;SDS011;22402;42.746;23.606;2023-06-26T08:48:35;2.57;;;2.37;;
36377;SDS011;22402;42.746;23.606;2023-06-26T08:51:11;2.80;;;2.23;;
36377;SDS011;22402;42.746;23.606;2023-06-26T08:53:43;4.10;;;2.87;;
36377;SDS011;22402;42.746;23.606;2023-06-26T08:56:18;4.43;;;2.67;;
36377;SDS011;22402;42.746;23.606;2023-06-26T08:58:47;2.60;;;2.40;;
36377;SDS011;22402;42.746;23.606;2023-06-26T09:01:12;3.73;;;2.73;;
36377;SDS011;22402;42.746;23.606;2023-06-26T09:03:38;2.03;;;1.83;;
36377;SDS011;22402;42.746;23.606;2023-06-26T09:06:04;2.10;;;2.00;;
36377;SDS011;22402;42.746;23.606;2023-06-26T09:08:29;2.10;;;1.90;;
36377;SDS011;22402;42.746;23.606;2023-06-26T09:10:55;2.73;;;2.37;;
36377;SDS011;22402;42.746;23.606;2023-06-26T09:13:20;3.23;;;2.33;;
36377;SDS011;22402;42.746;23.606;2023-06-26T09:15:46;3.77;;;2.23;;
36377;SDS011;22402;42.746;23.606;2023-06-26T09:18:12;2.47;;;2.27;;
36377;SDS011;22402;42.746;23.606;2023-06-26T09:20:38;5.10;;;2.40;;
36377;SDS011;22402;42.746;23.606;2023-06-26T09:23:04;4.23;;;3.23;;
36377;SDS011;22402;42.746;23.606;2023-06-26T09:25:30;4.70;;;3.00;;
36377;SDS011;22402;42.746;23.606;2023-06-26T09:27:56;8.37;;;3.30;;
36377;SDS011;22402;42.746;23.606;2023-06-26T09:30:22;3.07;;;2.87;;
36377;SDS011;22402;42.746;23.606;2023-06-26T09:32:48;4.00;;;3.00;;
36377;SDS011;22402;42.746;23.606;2023-06-26T09:35:15;6.53;;;3.30;;
36377;SDS011;22402;42.746;23.606;2023-06-26T09:37:41;6.97;;;3.70;;
36377;SDS011;22402;42.746;23.606;2023-06-26T09:40:07;3.50;;;3.20;;
36377;SDS011;22402;42.746;23.606;2023-06-26T09:42:34;4.00;;;3.50;;
36377;SDS011;22402;42.746;23.606;2023-06-26T09:44:59;4.40;;;3.53;;
36377;SDS011;22402;42.746;23.606;2023-06-26T09:47:25;4.20;;;3.63;;
36377;SDS011;22402;42.746;23.606;2023-06-26T09:49:50;5.77;;;3.87;;
36377;SDS011;22402;42.746;23.606;2023-06-26T09:52:17;4.60;;;3.40;;
36377;SDS011;22402;42.746;23.606;2023-06-26T09:54:44;4.00;;;3.60;;
36377;SDS011;22402;42.746;23.606;2023-06-26T09:57:12;5.70;;;3.20;;
36377;SDS011;22402;42.746;23.606;2023-06-26T09:59:40;7.27;;;3.53;;
36377;SDS011;22402;42.746;23.606;2023-06-26T10:02:07;4.30;;;3.90;;
36377;SDS011;22402;42.746;23.606;2023-06-26T10:04:33;4.73;;;4.33;;
36377;SDS011;22402;42.746;23.606;2023-06-26T10:07:06;6.23;;;5.37;;
36377;SDS011;22402;42.746;23.606;2023-06-26T10:09:36;4.80;;;4.40;;
36377;SDS011;22402;42.746;23.606;2023-06-26T10:12:19;6.10;;;4.83;;
36377;SDS011;22402;42.746;23.606;2023-06-26T10:14:47;4.77;;;4.27;;
36377;SDS011;22402;42.746;23.606;2023-06-26T10:17:15;12.27;;;4.17;;
36377;SDS011;22402;42.746;23.606;2023-06-26T10:19:44;8.40;;;5.70;;
36377;SDS011;22402;42.746;23.606;2023-06-26T10:22:15;5.27;;;4.77;;
36377;SDS011;22402;42.746;23.606;2023-06-26T10:24:42;5.87;;;5.00;;
36377;SDS011;22402;42.746;23.606;2023-06-26T10:27:20;6.07;;;5.20;;
36377;SDS011;22402;42.746;23.606;2023-06-26T10:29:51;10.33;;;4.97;;
36377;SDS011;22402;42.746;23.606;2023-06-26T10:32:25;6.60;;;5.80;;
36377;SDS011;22402;42.746;23.606;2023-06-26T10:34:51;6.20;;;4.80;;
36377;SDS011;22402;42.746;23.606;2023-06-26T10:37:18;7.30;;;5.40;;
36377;SDS011;22402;42.746;23.606;2023-06-26T10:39:47;6.33;;;5.63;;
36377;SDS011;22402;42.746;23.606;2023-06-26T10:42:19;5.43;;;4.93;;
36377;SDS011;22402;42.746;23.606;2023-06-26T10:45:11;7.60;;;5.20;;
36377;SDS011;22402;42.746;23.606;2023-06-26T10:47:39;4.60;;;4.20;;
36377;SDS011;22402;42.746;23.606;2023-06-26T10:55:58;8.50;;;4.70;;
36377;SDS011;22402;42.746;23.606;2023-06-26T10:58:39;6.53;;;4.43;;
36377;SDS011;22402;42.746;23.606;2023-06-26T11:03:49;5.63;;;5.13;;
36377;SDS011;22402;42.746;23.606;2023-06-26T11:06:28;5.10;;;4.60;;
36377;SDS011;22402;42.746;23.606;2023-06-26T11:08:54;9.57;;;5.13;;
36377;SDS011;22402;42.746;23.606;2023-06-26T11:14:27;4.93;;;4.43;;
36377;SDS011;22402;42.746;23.606;2023-06-26T11:16:54;8.80;;;4.30;;
36377;SDS011;22402;42.746;23.606;2023-06-26T11:19:21;13.23;;;4.87;;
36377;SDS011;22402;42.746;23.606;2023-06-26T11:21:46;4.63;;;3.77;;
36377;SDS011;22402;42.746;23.606;2023-06-26T11:24:12;4.07;;;3.30;;
36377;SDS011;22402;42.746;23.606;2023-06-26T11:26:42;4.13;;;3.50;;
36377;SDS011;22402;42.746;23.606;2023-06-26T11:29:09;3.90;;;3.60;;
36377;SDS011;22402;42.746;23.606;2023-06-26T11:31:36;4.03;;;3.70;;
36377;SDS011;22402;42.746;23.606;2023-06-26T11:34:04;8.70;;;4.03;;
36377;SDS011;22402;42.746;23.606;2023-06-26T11:36:40;4.87;;;3.50;;
36377;SDS011;22402;42.746;23.606;2023-06-26T11:39:07;3.20;;;2.97;;
36377;SDS011;22402;42.746;23.606;2023-06-26T11:41:36;6.30;;;3.20;;
36377;SDS011;22402;42.746;23.606;2023-06-26T11:44:04;3.37;;;3.07;;
36377;SDS011;22402;42.746;23.606;2023-06-26T11:46:31;3.10;;;2.63;;
36377;SDS011;22402;42.746;23.606;2023-06-26T11:48:58;2.80;;;2.60;;
36377;SDS011;22402;42.746;23.606;2023-06-26T11:51:26;2.53;;;2.33;;
36377;SDS011;22402;42.746;23.606;2023-06-26T11:53:52;8.03;;;3.00;;
36377;SDS011;22402;42.746;23.606;2023-06-26T11:56:18;2.40;;;2.30;;
36377;SDS011;22402;42.746;23.606;2023-06-26T11:58:57;3.30;;;3.00;;
36377;SDS011;22402;42.746;23.606;2023-06-26T12:01:39;2.90;;;2.70;;
36377;SDS011;22402;42.746;23.606;2023-06-26T12:04:07;3.67;;;3.00;;
36377;SDS011;22402;42.746;23.606;2023-06-26T12:06:34;3.33;;;3.13;;
36377;SDS011;22402;42.746;23.606;2023-06-26T12:09:08;5.20;;;3.93;;
36377;SDS011;22402;42.746;23.606;2023-06-26T12:11:37;6.47;;;4.10;;
36377;SDS011;22402;42.746;23.606;2023-06-26T12:14:05;6.10;;;3.87;;
36377;SDS011;22402;42.746;23.606;2023-06-26T12:16:31;8.63;;;5.50;;
36377;SDS011;22402;42.746;23.606;2023-06-26T12:18:59;4.70;;;4.30;;
36377;SDS011;22402;42.746;23.606;2023-06-26T12:24:03;5.47;;;4.33;;
36377;SDS011;22402;42.746;23.606;2023-06-26T12:26:29;6.20;;;4.53;;
36377;SDS011;22402;42.746;23.606;2023-06-26T12:29:03;6.67;;;5.00;;
36377;SDS011;22402;42.746;23.606;2023-06-26T12:31:33;9.57;;;4.90;;
36377;SDS011;22402;42.746;23.606;2023-06-26T12:33:59;7.70;;;5.77;;
36377;SDS011;22402;42.746;23.606;2023-06-26T12:36:25;6.43;;;5.43;;
36377;SDS011;22402;42.746;23.606;2023-06-26T12:38:52;7.47;;;5.90;;
36377;SDS011;22402;42.746;23.606;2023-06-26T12:41:18;13.83;;;6.00;;
36377;SDS011;22402;42.746;23.606;2023-06-26T12:43:45;8.77;;;5.47;;
36377;SDS011;22402;42.746;23.606;2023-06-26T12:46:11;8.00;;;5.43;;
36377;SDS011;22402;42.746;23.606;2023-06-26T12:48:39;9.00;;;5.50;;
36377;SDS011;22402;42.746;23.606;2023-06-26T12:51:11;6.10;;;5.50;;
36377;SDS011;22402;42.746;23.606;2023-06-26T12:53:37;6.90;;;6.20;;
36377;SDS011;22402;42.746;23.606;2023-06-26T12:56:07;6.00;;;5.50;;
36377;SDS011;22402;42.746;23.606;2023-06-26T12:58:37;7.00;;;6.27;;
36377;SDS011;22402;42.746;23.606;2023-06-26T13:01:04;6.77;;;5.30;;
36377;SDS011;22402;42.746;23.606;2023-06-26T13:03:35;6.60;;;6.00;;
36377;SDS011;22402;42.746;23.606;2023-06-26T13:06:02;8.40;;;6.47;;
36377;SDS011;22402;42.746;23.606;2023-06-26T13:08:27;10.90;;;8.10;;
36377;SDS011;22402;42.746;23.606;2023-06-26T13:10:54;12.47;;;6.80;;
36377;SDS011;22402;42.746;23.606;2023-06-26T13:13:19;8.57;;;7.67;;
36377;SDS011;22402;42.746;23.606;2023-06-26T13:15:45;8.20;;;7.33;;
36377;SDS011;22402;42.746;23.606;2023-06-26T13:18:10;9.50;;;8.50;;
36377;SDS011;22402;42.746;23.606;2023-06-26T13:20:36;8.97;;;8.10;;
36377;SDS011;22402;42.746;23.606;2023-06-26T13:23:01;8.80;;;7.90;;
36377;SDS011;22402;42.746;23.606;2023-06-26T13:25:27;9.77;;;7.33;;
36377;SDS011;22402;42.746;23.606;2023-06-26T13:27:52;10.03;;;9.03;;
36377;SDS011;22402;42.746;23.606;2023-06-26T13:30:18;13.63;;;8.50;;
36377;SDS011;22402;42.746;23.606;2023-06-26T13:32:43;8.90;;;8.00;;
36377;SDS011;22402;42.746;23.606;2023-06-26T13:35:09;8.03;;;7.23;;
36377;SDS011;22402;42.746;23.606;2023-06-26T13:37:35;8.60;;;7.80;;
36377;SDS011;22402;42.746;23.606;2023-06-26T13:40:00;10.23;;;7.80;;
36377;SDS011;22402;42.746;23.606;2023-06-26T13:42:27;9.43;;;8.53;;
36377;SDS011;22402;42.746;23.606;2023-06-26T13:44:53;8.53;;;7.63;;
36377;SDS011;22402;42.746;23.606;2023-06-26T13:47:18;8.10;;;7.30;;
36377;SDS011;22402;42.746;23.606;2023-06-26T13:49:44;7.97;;;7.10;;
36377;SDS011;22402;42.746;23.606;2023-06-26T13:52:09;8.23;;;7.47;;
36377;SDS011;22402;42.746;23.606;2023-06-26T13:54:35;8.80;;;7.20;;
36377;SDS011;22402;42.746;23.606;2023-06-26T13:57:02;9.47;;;7.33;;
36377;SDS011;22402;42.746;23.606;2023-06-26T13:59:30;9.87;;;7.40;;
36377;SDS011;22402;42.746;23.606;2023-06-26T14:01:56;7.30;;;6.63;;
36377;SDS011;22402;42.746;23.606;2023-06-26T14:04:21;7.87;;;7.10;;
36377;SDS011;22402;42.746;23.606;2023-06-26T14:06:47;10.07;;;7.80;;
36377;SDS011;22402;42.746;23.606;2023-06-26T14:09:12;6.83;;;6.10;;
36377;SDS011;22402;42.746;23.606;2023-06-26T14:11:38;8.20;;;7.03;;
36377;SDS011;22402;42.746;23.606;2023-06-26T14:14:03;8.57;;;7.20;;
36377;SDS011;22402;42.746;23.606;2023-06-26T14:16:29;7.53;;;6.73;;
36377;SDS011;22402;42.746;23.606;2023-06-26T14:18:55;8.70;;;7.50;;
36377;SDS011;22402;42.746;23.606;2023-06-26T14:21:20;8.20;;;6.87;;
36377;SDS011;22402;42.746;23.606;2023-06-26T14:23:46;7.93;;;7.10;;
36377;SDS011;22402;42.746;23.606;2023-06-26T14:26:12;9.60;;;6.37;;
36377;SDS011;22402;42.746;23.606;2023-06-26T14:28:37;9.20;;;6.93;;
36377;SDS011;22402;42.746;23.606;2023-06-26T14:31:03;6.67;;;6.07;;
36377;SDS011;22402;42.746;23.606;2023-06-26T14:33:30;7.13;;;6.33;;
36377;SDS011;22402;42.746;23.606;2023-06-26T14:35:55;7.50;;;6.80;;
36377;SDS011;22402;42.746;23.606;2023-06-26T14:38:20;8.10;;;6.40;;
36377;SDS011;22402;42.746;23.606;2023-06-26T14:40:46;8.77;;;7.57;;
36377;SDS011;22402;42.746;23.606;2023-06-26T14:43:11;10.30;;;6.97;;